createdAt,value
2018-07-11T00:00:17.218Z,62.80
2018-07-11T00:02:45.547Z,63.30
2018-07-11T00:05:13.841Z,62.80
2018-07-11T00:07:42.171Z,62.90
2018-07-11T00:10:10.531Z,62.80
2018-07-11T00:12:38.861Z,64.50
2018-07-11T00:15:07.287Z,65.00
2018-07-11T00:17:35.635Z,63.40
2018-07-11T00:20:04.014Z,63.90
2018-07-11T00:22:32.313Z,62.90
2018-07-11T00:25:00.631Z,63.40
2018-07-11T00:27:28.934Z,62.90
2018-07-11T00:29:57.235Z,62.90
2018-07-11T00:32:25.546Z,63.30
2018-07-11T00:34:53.883Z,63.30
2018-07-11T00:37:22.318Z,62.80
2018-07-11T00:39:50.495Z,62.90
2018-07-11T00:42:18.794Z,63.10
2018-07-11T00:44:47.169Z,63.00
2018-07-11T00:47:15.499Z,63.10
2018-07-11T00:49:43.827Z,63.50
2018-07-11T00:52:12.166Z,63.20
2018-07-11T00:54:41.119Z,63.50
2018-07-11T00:57:09.557Z,64.00
2018-07-11T00:59:39.342Z,63.20
2018-07-11T01:02:08.227Z,63.20
2018-07-11T01:04:36.559Z,63.50
2018-07-11T01:07:06.282Z,63.20
2018-07-11T01:09:42.034Z,63.70
2018-07-11T01:12:10.381Z,63.70
2018-07-11T01:14:38.746Z,64.30
2018-07-11T01:19:44.703Z,63.60
2018-07-11T01:22:13.033Z,63.50
2018-07-11T01:24:41.396Z,64.40
2018-07-11T01:27:09.687Z,64.20
2018-07-11T01:29:37.965Z,63.50
2018-07-11T01:32:06.298Z,63.40
2018-07-11T01:34:34.623Z,63.40
2018-07-11T01:37:02.920Z,63.50
2018-07-11T01:39:31.248Z,63.40
2018-07-11T01:41:59.606Z,63.40
2018-07-11T01:44:27.926Z,63.60
2018-07-11T01:46:56.212Z,63.40
2018-07-11T01:49:24.483Z,63.60
2018-07-11T01:52:04.236Z,63.30
2018-07-11T01:54:32.604Z,63.50
2018-07-11T01:57:00.913Z,63.30
2018-07-11T01:59:34.798Z,63.40
2018-07-11T02:02:03.714Z,63.50
2018-07-11T02:04:33.167Z,63.50
2018-07-11T02:07:02.381Z,63.50
2018-07-11T02:09:31.024Z,63.70
2018-07-11T02:11:59.419Z,63.60
2018-07-11T02:14:28.232Z,63.50
2018-07-11T02:16:56.638Z,63.40
2018-07-11T02:19:24.906Z,63.50
2018-07-11T02:21:53.503Z,63.50
2018-07-11T02:24:23.150Z,63.40
2018-07-11T02:29:20.059Z,63.60
2018-07-11T02:31:48.404Z,63.50
2018-07-11T02:34:17.890Z,63.70
2018-07-11T02:36:46.334Z,63.60
2018-07-11T02:39:14.676Z,63.80
2018-07-11T02:41:42.964Z,63.70
2018-07-11T02:44:11.291Z,63.70
2018-07-11T02:47:47.805Z,63.80
2018-07-11T02:50:16.145Z,63.90
2018-07-11T02:52:44.485Z,64.00
2018-07-11T02:55:12.810Z,63.90
2018-07-11T02:57:41.140Z,63.70
2018-07-11T03:00:09.460Z,64.50
2018-07-11T03:02:37.748Z,63.70
2018-07-11T03:05:06.072Z,63.90
2018-07-11T03:07:34.373Z,64.10
2018-07-11T03:10:02.698Z,63.90
2018-07-11T03:12:31.530Z,64.00
2018-07-11T03:14:59.843Z,64.00
2018-07-11T03:17:28.151Z,64.00
2018-07-11T03:19:56.566Z,63.80
2018-07-11T03:22:24.893Z,64.00
2018-07-11T03:24:53.171Z,63.90
2018-07-11T03:29:49.544Z,63.90
2018-07-11T03:32:17.840Z,64.00
2018-07-11T03:34:46.171Z,64.00
2018-07-11T03:37:14.542Z,63.90
2018-07-11T03:39:43.038Z,64.00
2018-07-11T03:42:11.356Z,63.90
2018-07-11T03:44:39.810Z,64.00
2018-07-11T03:47:08.188Z,64.00
2018-07-11T03:49:36.602Z,64.00
2018-07-11T03:52:05.222Z,63.90
2018-07-11T03:54:33.529Z,63.90
2018-07-11T03:57:01.843Z,64.00
2018-07-11T03:59:30.171Z,64.00
2018-07-11T04:01:58.518Z,63.80
2018-07-11T04:04:26.819Z,63.80
2018-07-11T04:06:55.225Z,63.60
2018-07-11T04:09:23.498Z,63.80
2018-07-11T04:11:51.801Z,63.90
2018-07-11T04:14:20.194Z,63.60
2018-07-11T04:16:48.520Z,63.70
2018-07-11T04:19:16.872Z,63.60
2018-07-11T04:21:45.183Z,63.50
2018-07-11T04:24:13.486Z,63.50
2018-07-11T04:26:41.874Z,63.40
2018-07-11T04:29:10.309Z,63.40
2018-07-11T04:31:38.891Z,63.40
2018-07-11T04:34:08.131Z,63.30
2018-07-11T04:36:36.428Z,63.10
2018-07-11T04:39:05.152Z,63.00
2018-07-11T04:41:33.572Z,63.10
2018-07-11T04:44:01.890Z,62.80
2018-07-11T04:46:30.279Z,62.80
2018-07-11T04:48:58.708Z,62.90
2018-07-11T04:51:27.051Z,62.30
2018-07-11T04:53:55.516Z,62.70
2018-07-11T04:56:24.083Z,62.50
2018-07-11T04:58:52.599Z,62.90
2018-07-11T05:01:20.977Z,62.60
2018-07-11T05:03:49.318Z,62.70
2018-07-11T05:06:17.768Z,62.50
2018-07-11T05:08:46.116Z,62.70
2018-07-11T05:11:14.453Z,62.50
2018-07-11T05:13:42.764Z,62.40
2018-07-11T05:16:11.133Z,62.20
2018-07-11T05:18:39.446Z,62.10
2018-07-11T05:21:07.778Z,62.00
2018-07-11T05:23:36.067Z,61.90
2018-07-11T05:26:04.377Z,61.60
2018-07-11T05:28:32.731Z,63.50
2018-07-11T05:31:01.067Z,61.80
2018-07-11T05:33:29.403Z,62.00
2018-07-11T05:35:57.718Z,61.60
2018-07-11T05:38:26.074Z,61.90
2018-07-11T05:40:54.450Z,61.80
2018-07-11T05:43:22.749Z,61.60
2018-07-11T05:45:51.078Z,61.60
2018-07-11T05:48:19.939Z,61.70
2018-07-11T05:50:48.310Z,61.50
2018-07-11T05:53:16.641Z,61.40
2018-07-11T05:55:45.045Z,61.60
2018-07-11T05:58:13.328Z,61.20
2018-07-11T06:00:41.689Z,61.00
2018-07-11T06:03:10.022Z,61.00
2018-07-11T06:05:38.400Z,60.80
2018-07-11T06:08:06.847Z,61.00
2018-07-11T06:10:35.177Z,61.00
2018-07-11T06:13:03.494Z,61.10
2018-07-11T06:15:31.861Z,61.40
2018-07-11T06:18:00.157Z,60.80
2018-07-11T06:20:28.486Z,60.80
2018-07-11T06:22:56.787Z,61.00
2018-07-11T06:25:25.099Z,60.50
2018-07-11T06:27:53.458Z,60.70
2018-07-11T06:32:49.894Z,60.40
2018-07-11T06:35:18.251Z,60.30
2018-07-11T06:40:14.704Z,60.30
2018-07-11T06:42:43.028Z,60.00
2018-07-11T06:45:11.395Z,60.00
2018-07-11T06:47:39.714Z,59.80
2018-07-11T06:50:08.104Z,59.80
2018-07-11T06:52:36.446Z,59.90
2018-07-11T06:55:04.849Z,59.90
2018-07-11T06:57:33.213Z,59.70
2018-07-11T07:00:01.521Z,59.30
2018-07-11T07:02:29.867Z,59.60
2018-07-11T07:04:58.553Z,59.50
2018-07-11T07:07:26.901Z,59.30
2018-07-11T07:09:55.251Z,59.30
2018-07-11T07:12:23.591Z,59.20
2018-07-11T07:14:52.046Z,59.20
2018-07-11T07:17:20.403Z,59.00
2018-07-11T07:19:48.763Z,59.00
2018-07-11T07:22:17.753Z,59.00
2018-07-11T07:24:46.142Z,58.90
2018-07-11T07:27:14.541Z,58.90
2018-07-11T07:29:42.906Z,58.80
2018-07-11T07:32:11.274Z,58.80
2018-07-11T07:37:07.692Z,58.20
2018-07-11T07:42:04.229Z,59.00
2018-07-11T07:44:32.543Z,58.20
2018-07-11T07:47:01.757Z,58.10
2018-07-11T07:49:31.461Z,58.70
2018-07-11T07:52:00.461Z,57.60
2018-07-11T07:54:29.644Z,57.80
2018-07-11T07:56:58.035Z,57.60
2018-07-11T07:59:26.819Z,57.10
2018-07-11T08:01:55.625Z,56.90
2018-07-11T08:04:24.263Z,56.00
2018-07-11T08:06:52.997Z,56.60
2018-07-11T08:09:21.375Z,56.60
2018-07-11T08:11:49.687Z,56.70
2018-07-11T08:14:18.005Z,56.30
2018-07-11T08:16:46.689Z,56.10
2018-07-11T08:19:15.017Z,52.60
2018-07-11T08:21:43.349Z,54.40
2018-07-11T08:24:23.155Z,54.90
2018-07-11T08:27:07.630Z,55.20
2018-07-11T08:29:59.313Z,55.20
2018-07-11T08:32:44.001Z,55.20
2018-07-11T08:35:28.533Z,55.10
2018-07-11T08:38:38.572Z,55.40
2018-07-11T08:43:24.854Z,55.10
2018-07-11T08:46:02.321Z,54.90
2018-07-11T08:48:42.114Z,55.00
2018-07-11T08:51:17.195Z,54.50
2018-07-11T08:53:57.239Z,54.40
2018-07-11T08:58:40.358Z,54.30
2018-07-11T09:02:23.566Z,53.90
2018-07-11T09:08:39.228Z,54.30
2018-07-11T09:13:23.408Z,52.40
2018-07-11T09:16:03.128Z,52.30
2018-07-11T09:18:43.247Z,52.00
2018-07-11T09:23:26.482Z,51.60
2018-07-11T09:25:54.812Z,51.40
2018-07-11T09:28:23.135Z,50.90
2018-07-11T09:30:51.505Z,50.80
2018-07-11T09:33:19.882Z,51.10
2018-07-11T09:35:48.247Z,50.90
2018-07-11T09:38:16.594Z,50.40
2018-07-11T09:40:44.875Z,50.60
2018-07-11T09:43:13.458Z,50.60
2018-07-11T09:45:41.780Z,50.60
2018-07-11T09:48:10.077Z,50.40
2018-07-11T09:50:38.365Z,50.80
2018-07-11T09:53:06.777Z,50.50
2018-07-11T09:55:36.389Z,50.00
2018-07-11T09:58:05.027Z,50.50
2018-07-11T10:00:38.643Z,49.80
2018-07-11T10:03:07.138Z,49.60
2018-07-11T10:05:35.488Z,50.10
2018-07-11T10:08:06.633Z,49.80
2018-07-11T10:10:34.965Z,49.60
2018-07-11T10:13:03.279Z,49.60
2018-07-11T10:15:31.643Z,49.70
2018-07-11T10:18:00.036Z,49.60
2018-07-11T10:20:28.388Z,49.30
2018-07-11T10:22:56.711Z,48.70
2018-07-11T10:25:25.104Z,48.80
2018-07-11T10:28:04.730Z,48.40
2018-07-11T10:30:33.118Z,48.40
2018-07-11T10:33:01.564Z,48.50
2018-07-11T10:35:29.958Z,48.10
2018-07-11T10:37:58.352Z,48.20
2018-07-11T10:40:26.901Z,48.20
2018-07-11T10:42:55.245Z,48.10
2018-07-11T10:45:23.535Z,47.60
2018-07-11T10:47:51.881Z,47.60
2018-07-11T10:50:20.198Z,47.60
2018-07-11T10:52:48.532Z,47.70
2018-07-11T10:55:16.865Z,47.60
2018-07-11T10:57:45.229Z,47.60
2018-07-11T11:00:35.964Z,47.60
2018-07-11T11:02:42.021Z,47.70
2018-07-11T11:05:10.406Z,47.60
2018-07-11T11:07:39.036Z,47.00
2018-07-11T11:10:07.339Z,47.40
2018-07-11T11:12:35.636Z,47.50
2018-07-11T11:15:03.973Z,47.30
2018-07-11T11:17:32.272Z,47.20
2018-07-11T11:20:00.618Z,47.20
2018-07-11T11:22:29.051Z,47.00
2018-07-11T11:24:57.430Z,47.00
2018-07-11T11:27:25.710Z,46.90
2018-07-11T11:29:54.234Z,46.80
2018-07-11T11:32:22.626Z,47.00
2018-07-11T11:34:50.944Z,47.00
2018-07-11T11:37:19.506Z,47.10
2018-07-11T11:39:47.869Z,47.10
2018-07-11T11:42:16.618Z,47.00
2018-07-11T11:44:44.906Z,47.00
2018-07-11T11:47:13.255Z,47.00
2018-07-11T11:49:41.695Z,47.00
2018-07-11T11:52:10.064Z,48.00
2018-07-11T11:54:38.385Z,47.30
2018-07-11T11:57:07.051Z,47.20
2018-07-11T11:59:35.406Z,47.30
2018-07-11T12:02:03.823Z,46.90
2018-07-11T12:04:32.169Z,46.90
2018-07-11T12:07:00.617Z,46.90
2018-07-11T12:09:28.938Z,46.60
2018-07-11T12:14:27.282Z,46.60
2018-07-11T12:16:55.582Z,46.50
2018-07-11T12:19:24.158Z,46.40
2018-07-11T12:21:53.066Z,46.20
2018-07-11T12:24:21.877Z,46.00
2018-07-11T12:26:50.199Z,46.00
2018-07-11T12:29:18.611Z,45.80
2018-07-11T12:31:46.905Z,45.70
2018-07-11T12:34:15.260Z,45.90
2018-07-11T12:36:43.575Z,46.20
2018-07-11T12:39:11.918Z,46.30
2018-07-11T12:41:40.325Z,46.30
2018-07-11T12:44:08.632Z,46.20
2018-07-11T12:46:37.017Z,46.10
2018-07-11T12:51:34.872Z,45.80
2018-07-11T12:54:03.820Z,45.30
2018-07-11T12:56:32.151Z,45.00
2018-07-11T12:59:00.495Z,45.20
2018-07-11T13:01:29.301Z,44.90
2018-07-11T13:03:58.598Z,44.60
2018-07-11T13:06:28.626Z,44.40
2018-07-11T13:08:57.015Z,44.40
2018-07-11T13:11:25.333Z,43.90
2018-07-11T13:13:53.724Z,44.30
2018-07-11T13:16:22.251Z,44.50
2018-07-11T13:18:50.496Z,44.90
2018-07-11T13:21:18.826Z,45.20
2018-07-11T13:23:47.179Z,45.40
2018-07-11T13:26:15.501Z,45.50
2018-07-11T13:28:43.835Z,45.60
2018-07-11T13:31:12.210Z,45.70
2018-07-11T13:33:41.061Z,45.90
2018-07-11T13:36:09.451Z,46.10
2018-07-11T13:38:37.835Z,46.30
2018-07-11T13:41:06.142Z,46.60
2018-07-11T13:43:34.483Z,46.60
2018-07-11T13:46:02.900Z,46.60
2018-07-11T13:48:31.243Z,46.60
2018-07-11T13:50:59.687Z,46.70
2018-07-11T13:53:28.035Z,46.20
2018-07-11T13:55:56.455Z,46.60
2018-07-11T13:58:24.743Z,47.20
2018-07-11T14:00:53.070Z,46.60
2018-07-11T14:03:21.535Z,46.40
2018-07-11T14:05:49.871Z,46.60
2018-07-11T14:08:18.306Z,46.60
2018-07-11T14:10:46.759Z,46.60
2018-07-11T14:13:15.126Z,46.40
2018-07-11T14:15:43.435Z,46.30
2018-07-11T14:18:11.784Z,46.40
2018-07-11T14:20:40.109Z,46.10
2018-07-11T14:23:09.122Z,46.10
2018-07-11T14:25:39.015Z,46.20
2018-07-11T14:28:07.440Z,46.50
2018-07-11T14:30:36.462Z,46.40
2018-07-11T14:33:06.911Z,46.30
2018-07-11T14:35:35.929Z,46.30
2018-07-11T14:38:04.262Z,45.80
2018-07-11T14:40:32.652Z,44.30
2018-07-11T14:43:01.069Z,44.00
2018-07-11T14:45:31.114Z,41.80
2018-07-11T14:48:04.794Z,41.30
2018-07-11T14:50:33.091Z,38.90
2018-07-11T14:53:01.962Z,36.60
2018-07-11T14:55:30.265Z,41.80
2018-07-11T14:57:58.691Z,41.60
2018-07-11T15:00:27.035Z,44.50
2018-07-11T15:02:55.348Z,46.30
2018-07-11T15:05:23.650Z,46.50
2018-07-11T15:07:52.076Z,46.80
2018-07-11T15:10:20.363Z,47.40
2018-07-11T15:12:49.422Z,47.00
2018-07-11T15:15:18.676Z,47.00
2018-07-11T15:17:47.001Z,47.10
2018-07-11T15:20:15.503Z,47.10
2018-07-11T15:22:43.806Z,46.90
2018-07-11T15:25:12.123Z,46.90
2018-07-11T15:27:40.599Z,46.80
2018-07-11T15:30:08.924Z,47.20
2018-07-11T15:32:37.282Z,46.60
2018-07-11T15:35:05.810Z,46.50
2018-07-11T15:37:34.186Z,46.60
2018-07-11T15:40:04.830Z,46.50
2018-07-11T15:42:33.263Z,46.30
2018-07-11T15:45:01.835Z,47.10
2018-07-11T15:47:31.230Z,46.30
2018-07-11T15:50:01.539Z,46.30
2018-07-11T15:52:31.951Z,46.30
2018-07-11T15:55:00.978Z,46.20
2018-07-11T15:57:39.325Z,46.30
2018-07-11T16:00:09.871Z,46.20
2018-07-11T16:02:44.652Z,46.20
2018-07-11T16:07:45.466Z,46.20
2018-07-11T16:10:14.680Z,46.10
2018-07-11T16:15:11.055Z,46.20
2018-07-11T16:17:39.376Z,46.20
2018-07-11T16:20:08.169Z,46.20
2018-07-11T16:22:36.755Z,46.30
2018-07-11T16:25:05.620Z,46.20
2018-07-11T16:27:34.024Z,46.30
2018-07-11T16:30:02.337Z,46.10
2018-07-11T16:32:31.573Z,46.20
2018-07-11T16:34:59.917Z,46.20
2018-07-11T16:37:28.804Z,46.20
2018-07-11T16:39:57.114Z,46.40
2018-07-11T16:42:25.411Z,47.30
2018-07-11T16:44:54.757Z,47.70
2018-07-11T16:47:23.096Z,47.60
2018-07-11T16:49:51.416Z,47.60
2018-07-11T16:52:19.769Z,48.10
2018-07-11T16:54:48.145Z,48.40
2018-07-11T16:57:22.649Z,48.30
2018-07-11T16:59:58.337Z,48.20
2018-07-11T17:02:27.148Z,48.40
2018-07-11T17:05:00.097Z,48.50
2018-07-11T17:07:28.448Z,48.70
2018-07-11T17:09:59.348Z,48.40
2018-07-11T17:12:27.708Z,48.70
2018-07-11T17:14:59.432Z,48.70
2018-07-11T17:17:32.804Z,48.80
2018-07-11T17:20:06.130Z,49.20
2018-07-11T17:22:43.682Z,49.50
2018-07-11T17:25:12.176Z,49.20
2018-07-11T17:27:40.507Z,48.80
2018-07-11T17:30:08.835Z,48.80
2018-07-11T17:32:37.801Z,48.80
2018-07-11T17:35:06.126Z,48.70
2018-07-11T17:37:35.841Z,48.80
2018-07-11T17:40:10.415Z,48.80
2018-07-11T17:42:42.264Z,48.70
2018-07-11T17:45:15.433Z,48.80
2018-07-11T17:49:22.819Z,48.80
2018-07-11T17:52:02.879Z,48.80
2018-07-11T17:55:14.954Z,48.70
2018-07-11T17:57:49.491Z,48.70
2018-07-11T18:00:33.161Z,49.10
2018-07-11T18:03:06.004Z,49.00
2018-07-11T18:05:41.786Z,49.20
2018-07-11T18:08:12.182Z,49.30
2018-07-11T18:10:51.887Z,49.40
2018-07-11T18:13:30.055Z,49.40
2018-07-11T18:16:16.962Z,49.40
2018-07-11T18:18:54.679Z,49.60
2018-07-11T18:21:45.384Z,49.60
2018-07-11T18:25:44.869Z,49.60
2018-07-11T18:28:27.230Z,49.70
2018-07-11T18:31:04.636Z,49.60
2018-07-11T18:34:44.619Z,50.30
2018-07-11T18:37:59.188Z,50.70
2018-07-11T18:40:31.047Z,50.80
2018-07-11T18:43:10.467Z,50.90
2018-07-11T18:45:57.791Z,51.00
2018-07-11T18:49:37.615Z,51.20
2018-07-11T18:52:17.103Z,51.40
2018-07-11T18:54:59.429Z,51.60
2018-07-11T18:59:43.498Z,51.60
2018-07-11T19:03:23.803Z,51.60
2018-07-11T19:06:06.947Z,51.80
2018-07-11T19:08:48.332Z,51.90
2018-07-11T19:11:22.239Z,52.00
2018-07-11T19:13:53.593Z,52.00
2018-07-11T19:16:29.054Z,52.20
2018-07-11T19:19:11.310Z,52.30
2018-07-11T19:26:36.439Z,52.40
2018-07-11T19:29:10.813Z,52.70
2018-07-11T19:31:49.218Z,53.40
2018-07-11T19:34:33.509Z,52.80
2018-07-11T19:37:07.231Z,52.90
2018-07-11T19:41:51.372Z,52.90
2018-07-11T19:44:31.928Z,53.00
2018-07-11T19:47:07.479Z,53.10
2018-07-11T19:49:46.831Z,53.30
2018-07-11T19:54:31.559Z,53.40
2018-07-11T19:57:01.543Z,52.40
2018-07-11T19:59:30.836Z,53.20
2018-07-11T20:01:59.847Z,53.50
2018-07-11T20:04:29.060Z,53.70
2018-07-11T20:06:57.394Z,53.80
2018-07-11T20:09:26.491Z,53.90
2018-07-11T20:11:54.812Z,54.00
2018-07-11T20:14:23.393Z,54.80
2018-07-11T20:16:51.905Z,54.00
2018-07-11T20:19:20.622Z,54.10
2018-07-11T20:21:49.144Z,54.40
2018-07-11T20:24:17.519Z,54.40
2018-07-11T20:26:45.903Z,54.50
2018-07-11T20:29:14.192Z,54.40
2018-07-11T20:31:42.466Z,54.50
2018-07-11T20:34:10.824Z,54.50
2018-07-11T20:36:39.171Z,54.50
2018-07-11T20:41:35.651Z,54.70
2018-07-11T20:44:04.137Z,54.60
2018-07-11T20:46:33.445Z,54.60
2018-07-11T20:49:06.807Z,54.80
2018-07-11T20:51:35.224Z,54.80
2018-07-11T20:54:03.502Z,54.80
2018-07-11T20:56:32.278Z,54.80
2018-07-11T20:59:12.079Z,55.00
2018-07-11T21:02:55.485Z,54.80
2018-07-11T21:06:47.358Z,54.90
2018-07-11T21:10:01.564Z,54.90
2018-07-11T21:15:50.614Z,55.40
2018-07-11T21:18:37.196Z,55.50
2018-07-11T21:21:05.523Z,55.60
2018-07-11T21:23:34.358Z,55.60
2018-07-11T21:26:02.672Z,55.70
2018-07-11T21:28:30.994Z,55.70
2018-07-11T21:30:59.326Z,55.70
2018-07-11T21:33:27.631Z,55.70
2018-07-11T21:35:56.011Z,55.70
2018-07-11T21:38:24.331Z,55.80
2018-07-11T21:40:52.828Z,55.70
2018-07-11T21:43:21.172Z,55.90
2018-07-11T21:45:49.563Z,56.00
2018-07-11T21:48:17.860Z,55.90
2018-07-11T21:50:46.177Z,56.00
2018-07-11T21:53:14.511Z,56.00
2018-07-11T21:55:42.845Z,56.00
2018-07-11T21:58:11.147Z,56.10
2018-07-11T22:00:40.556Z,56.10
2018-07-11T22:03:09.850Z,56.30
2018-07-11T22:05:38.426Z,56.20
2018-07-11T22:08:07.812Z,56.30
2018-07-11T22:10:37.429Z,56.40
2018-07-11T22:13:06.040Z,56.20
2018-07-11T22:15:34.732Z,56.40
2018-07-11T22:18:14.856Z,56.40
2018-07-11T22:20:42.106Z,56.50
2018-07-11T22:23:09.348Z,56.50
2018-07-11T22:25:36.609Z,56.60
2018-07-11T22:28:03.860Z,56.70
2018-07-11T22:30:31.137Z,56.60
2018-07-11T22:32:58.395Z,56.70
2018-07-11T22:35:25.655Z,56.90
2018-07-11T22:37:52.919Z,57.00
2018-07-11T22:40:20.177Z,57.00
2018-07-11T22:42:47.637Z,56.90
2018-07-11T22:45:14.853Z,57.00
2018-07-11T22:47:42.091Z,57.00
2018-07-11T22:50:09.386Z,56.80
2018-07-11T22:52:36.655Z,57.00
2018-07-11T22:55:04.816Z,56.90
2018-07-11T22:57:32.081Z,57.00
2018-07-11T22:59:59.398Z,57.10
2018-07-11T23:02:26.660Z,56.80
2018-07-11T23:04:53.926Z,57.00
2018-07-11T23:09:48.731Z,57.20
2018-07-11T23:12:16.003Z,57.00
2018-07-11T23:14:43.261Z,56.70
2018-07-11T23:17:10.521Z,57.00
2018-07-11T23:19:37.767Z,57.10
2018-07-11T23:22:05.000Z,57.30
2018-07-11T23:24:32.375Z,57.20
2018-07-11T23:26:59.638Z,57.40
2018-07-11T23:29:26.942Z,57.60
2018-07-11T23:31:54.179Z,57.60
2018-07-11T23:34:21.468Z,57.50
2018-07-11T23:36:48.734Z,57.70
2018-07-11T23:39:16.042Z,57.90
2018-07-11T23:41:43.343Z,57.70
2018-07-11T23:44:10.683Z,57.20
2018-07-11T23:46:37.944Z,57.20
2018-07-11T23:49:05.199Z,57.50
2018-07-11T23:51:32.543Z,57.50
2018-07-11T23:53:59.844Z,57.50
2018-07-11T23:56:27.111Z,57.70
2018-07-11T23:58:54.406Z,57.90
